Minerva Tychi — SVCD7 — position and weather

sailwx.info

Track history (hours):
 
Tides and Currents Weather Stations Pressure Air Temp Water Temp Dewpoint Dewpoint Depression Visibility Wind Speed Wind Dir Waves Ship Positions

Minerva Tychi

Last reported at 2017-Oct-20 15:54 UTC. Time now 2017-Oct-20 16:30 UTC.
Position N 51°25' E 002°41'.

Length 184 m; draft 11.1 m.

Type: Tanker. MMSI: 241372000.

Date/timePositionNaut miles runAvg speedWind from/ knotsBaromVisibWave heightAir tempDewpointWater temp
2017-Oct-20 15:54N 51°25' E 002°41'0 0.0
2017-Oct-20 15:30N 51°25' E 002°41'0 0.0
2017-Oct-20 15:00N 51°25' E 002°41'0 0.0
2017-Oct-20 14:30N 51°25' E 002°41'0 0.0
2017-Oct-20 13:30N 51°25' E 002°41'0 0.0
2017-Oct-20 13:00N 51°25' E 002°41'0 0.0
2017-Oct-20 12:30N 51°25' E 002°41'0 0.0
2017-Oct-20 11:57N 51°25' E 002°41'0 0.0
2017-Oct-20 07:27N 51°25' E 002°40'0 0.1
2017-Oct-20 05:57N 51°25' E 002°41'0 0.0
2017-Oct-20 05:27N 51°25' E 002°41'0 0.0
2017-Oct-20 04:57N 51°25' E 002°41'0 0.0
2017-Oct-20 04:18N 51°25' E 002°41'0 0.0
2017-Oct-20 03:51N 51°25' E 002°41'0 0.0
2017-Oct-20 01:33N 51°25' E 002°41'0 0.0
2017-Oct-20 01:18N 51°25' E 002°41'0 0.1
2017-Oct-20 00:54N 51°25' E 002°41'0 0.0
2017-Oct-20 00:15N 51°25' E 002°41'0 0.1
2017-Oct-19 20:36N 51°25' E 002°40'0 0.0
2017-Oct-19 20:24N 51°25' E 002°40'0 0.0
2017-Oct-19 19:51N 51°25' E 002°40'0 0.0
2017-Oct-19 19:30N 51°25' E 002°40'0 0.1
2017-Oct-19 18:03N 51°25' E 002°40'0 0.2
2017-Oct-19 17:48N 51°25' E 002°40'0 0.3
2017-Oct-19 17:27N 51°25' E 002°40'1 2.0
2017-Oct-19 16:57N 51°24' E 002°42'3 7.1
2017-Oct-19 16:31N 51°24' E 002°47'510.6
2017-Oct-19 16:01N 51°25' E 002°55'611.6
2017-Oct-19 15:30N 51°24' E 003°04'611.4
2017-Oct-19 15:00N 51°25' E 003°14'612.0
2017-Oct-19 14:30N 51°25' E 003°23'612.1
2017-Oct-19 14:01N 51°26' E 003°33'4 8.9
2017-Oct-19 13:30N 51°26' E 003°40'5 9.3
2017-Oct-19 13:00N 51°23' E 003°44'4 8.4
2017-Oct-19 12:31N 51°21' E 003°50'4 7.2
2017-Oct-19 12:00N 51°22' E 003°55'4 7.9
2017-Oct-19 11:30N 51°26' E 003°58'3 6.0
2017-Oct-19 11:00N 51°24' E 004°02'4 8.2
2017-Oct-19 10:30N 51°22' E 004°08'3 6.5
2017-Oct-19 10:00N 51°22' E 004°13'3 5.2
2017-Oct-19 09:30N 51°21' E 004°17'0 0.0
2017-Oct-19 08:58N 51°21' E 004°17'0 0.0
2017-Oct-19 08:22N 51°21' E 004°17'0 0.9
2017-Oct-19 08:00N 51°21' E 004°18'3 5.9
2017-Oct-19 07:30N 51°18' E 004°20'2 3.6
2017-Oct-19 07:00N 51°16' E 004°21'0 0.5
2017-Oct-19 06:29N 51°16' E 004°21'0 0.0
2017-Oct-19 05:59N 51°16' E 004°21'0 0.0
2017-Oct-19 05:26N 51°16' E 004°21'0 0.0
2017-Oct-19 04:50N 51°16' E 004°21'0 0.0
2017-Oct-19 04:26N 51°16' E 004°21'0 0.0
2017-Oct-19 03:59N 51°16' E 004°21'0 0.0
2017-Oct-19 03:29N 51°16' E 004°21'0 0.0
2017-Oct-19 02:56N 51°16' E 004°21'0 0.0
2017-Oct-19 02:29N 51°16' E 004°21'0 0.0
2017-Oct-19 01:56N 51°16' E 004°21'0 0.0
2017-Oct-19 01:20N 51°16' E 004°21'0 0.0
2017-Oct-19 00:59N 51°16' E 004°21'0 0.0
2017-Oct-19 00:26N 51°16' E 004°21'0 0.0
2017-Oct-18 23:56N 51°16' E 004°21'0 0.0
2017-Oct-18 23:29N 51°16' E 004°21'0 0.0
2017-Oct-18 22:59N 51°16' E 004°21'0 0.0
2017-Oct-18 22:29N 51°16' E 004°21'0 0.0
2017-Oct-18 21:59N 51°16' E 004°21'0 0.0
2017-Oct-18 21:26N 51°16' E 004°21'0 0.0
2017-Oct-18 20:59N 51°16' E 004°21'0 0.0
2017-Oct-18 20:26N 51°16' E 004°21'0 0.0
2017-Oct-18 19:59N 51°16' E 004°21'0 0.0
2017-Oct-18 19:26N 51°16' E 004°21'0 0.0
2017-Oct-18 18:53N 51°16' E 004°21'0 0.0
2017-Oct-18 18:23N 51°16' E 004°21'0 0.0
2017-Oct-18 17:59N 51°16' E 004°21'0 0.0
2017-Oct-18 17:29N 51°16' E 004°21'0 0.0
2017-Oct-18 16:59N 51°16' E 004°21'0 0.0
2017-Oct-18 16:29N 51°16' E 004°21'0 0.0
2017-Oct-18 15:56N 51°16' E 004°21'0 0.0
2017-Oct-18 15:29N 51°16' E 004°21'0 0.0
2017-Oct-18 14:59N 51°16' E 004°21'0 0.0
2017-Oct-18 13:59N 51°16' E 004°21'0 0.0
2017-Oct-18 13:23N 51°16' E 004°21'0 0.0
2017-Oct-18 12:59N 51°16' E 004°21'0 0.0
2017-Oct-18 12:26N 51°16' E 004°21'0 0.0
2017-Oct-18 11:59N 51°16' E 004°21'0 0.0
2017-Oct-18 11:29N 51°16' E 004°21'0 0.0
2017-Oct-18 10:56N 51°16' E 004°21'0 0.0
2017-Oct-18 10:29N 51°16' E 004°21'0 0.0
2017-Oct-18 09:59N 51°16' E 004°21'0 0.0
2017-Oct-18 09:29N 51°16' E 004°21'0 0.0
2017-Oct-18 08:53N 51°16' E 004°21'0 0.0
2017-Oct-18 08:29N 51°16' E 004°21'0 0.0
2017-Oct-18 07:59N 51°16' E 004°21'0 0.0
2017-Oct-18 07:26N 51°16' E 004°21'0 0.0
2017-Oct-18 06:56N 51°16' E 004°21'0 0.0
2017-Oct-18 06:29N 51°16' E 004°21'0 0.0
2017-Oct-18 05:50N 51°16' E 004°21'0 0.0
2017-Oct-18 05:26N 51°16' E 004°21'0 0.0
2017-Oct-18 04:59N 51°16' E 004°21'0 0.0
2017-Oct-18 04:26N 51°16' E 004°21'0 0.0
2017-Oct-18 03:56N 51°16' E 004°21'0 0.0
2017-Oct-18 03:23N 51°16' E 004°21'0 0.0
2017-Oct-18 02:59N 51°16' E 004°21'0 0.0
2017-Oct-18 02:29N 51°16' E 004°21'0 0.0
2017-Oct-18 01:59N 51°16' E 004°21'0 0.0
2017-Oct-18 01:29N 51°16' E 004°21'0 0.0
2017-Oct-18 00:59N 51°16' E 004°21'0 0.0
2017-Oct-18 00:29N 51°16' E 004°21'0 0.0
2017-Oct-17 23:50N 51°16' E 004°21'0 0.0
2017-Oct-17 23:26N 51°16' E 004°21'0 0.0
2017-Oct-17 22:56N 51°16' E 004°21'0 0.0
2017-Oct-17 22:26N 51°16' E 004°21'0 0.0
2017-Oct-17 21:59N 51°16' E 004°21'0 0.0
2017-Oct-17 21:29N 51°16' E 004°21'0 0.0
2017-Oct-17 20:59N 51°16' E 004°21'0 0.0
2017-Oct-17 20:17N 51°16' E 004°21'0 0.0
2017-Oct-17 19:56N 51°16' E 004°21'0 0.0
2017-Oct-17 19:29N 51°16' E 004°21'0 0.0
2017-Oct-17 18:59N 51°16' E 004°21'0 0.0
2017-Oct-17 18:29N 51°16' E 004°21'0 0.0
2017-Oct-17 17:59N 51°16' E 004°21'0 0.0
2017-Oct-17 17:26N 51°16' E 004°21'0 0.0
2017-Oct-17 16:59N 51°16' E 004°21'0 0.0
2017-Oct-17 16:29N 51°16' E 004°21'0 0.0
2017-Oct-17 15:59N 51°16' E 004°21'0 0.0
2017-Oct-17 15:20N 51°16' E 004°21'0 0.0
2017-Oct-17 14:59N 51°16' E 004°21'0 0.0
2017-Oct-17 14:26N 51°16' E 004°21'0 0.0
2017-Oct-17 13:56N 51°16' E 004°21'0 0.0
2017-Oct-17 13:29N 51°16' E 004°21'0 0.0
2017-Oct-17 12:56N 51°16' E 004°21'0 0.0
2017-Oct-17 12:26N 51°16' E 004°21'0 0.0
2017-Oct-17 11:59N 51°16' E 004°21'0 0.0
2017-Oct-17 11:29N 51°16' E 004°21'0 0.0
2017-Oct-17 10:59N 51°16' E 004°21'0 0.0
2017-Oct-17 10:29N 51°16' E 004°21'0 0.1
2017-Oct-17 10:00N 51°16' E 004°21'2 4.1
2017-Oct-17 09:30N 51°18' E 004°20'3 5.9
2017-Oct-17 09:01N 51°21' E 004°17'0 0.0
2017-Oct-17 08:30N 51°21' E 004°17'0 0.0
2017-Oct-17 08:00N 51°21' E 004°17'0 0.0
2017-Oct-17 07:30N 51°21' E 004°17'0 0.0
2017-Oct-17 07:00N 51°21' E 004°17'2 3.1
2017-Oct-17 06:30N 51°21' E 004°15'4 7.1
2017-Oct-17 06:00N 51°24' E 004°11'510.2
2017-Oct-17 05:30N 51°22' E 004°03'4 8.9
2017-Oct-17 05:00N 51°26' E 003°59'510.7
2017-Oct-17 04:30N 51°21' E 003°54'5 9.8
2017-Oct-17 04:00N 51°22' E 003°46'4 7.3
2017-Oct-17 03:30N 51°25' E 003°43'0 0.6
2017-Oct-17 02:56N 51°25' E 003°44'0 0.0
2017-Oct-17 02:23N 51°25' E 003°44'0 0.0
2017-Oct-17 01:59N 51°25' E 003°44'0 0.0
2017-Oct-17 01:29N 51°25' E 003°44'0 0.0
2017-Oct-17 00:59N 51°25' E 003°44'0 0.0
2017-Oct-17 00:29N 51°25' E 003°44'0 0.0
2017-Oct-16 23:59N 51°25' E 003°44'0 0.0
2017-Oct-16 23:08N 51°25' E 003°44'0 0.0
2017-Oct-16 22:53N 51°25' E 003°44'0 0.0
2017-Oct-16 22:29N 51°25' E 003°44'0 0.0
2017-Oct-16 21:59N 51°25' E 003°44'0 0.0
2017-Oct-16 21:29N 51°25' E 003°44'0 0.0
2017-Oct-16 20:59N 51°25' E 003°44'0 0.0
2017-Oct-16 20:29N 51°25' E 003°44'0 0.0
2017-Oct-16 19:59N 51°25' E 003°44'0 0.0
2017-Oct-16 19:29N 51°25' E 003°44'0 0.0
2017-Oct-16 18:59N 51°25' E 003°44'0 0.0
2017-Oct-16 18:29N 51°25' E 003°44'0 0.0
2017-Oct-16 17:59N 51°25' E 003°44'0 0.0
2017-Oct-16 17:29N 51°25' E 003°44'0 0.0
2017-Oct-16 16:59N 51°25' E 003°44'0 0.0
2017-Oct-16 16:23N 51°25' E 003°44'0 0.0
2017-Oct-16 15:59N 51°25' E 003°44'0 0.0
2017-Oct-16 15:29N 51°25' E 003°44'0 0.0
2017-Oct-16 14:59N 51°25' E 003°44'0 0.0
2017-Oct-16 13:59N 51°25' E 003°44'0 0.0
2017-Oct-16 13:17N 51°25' E 003°44'0 0.0
2017-Oct-16 12:59N 51°25' E 003°44'0 0.0
2017-Oct-16 12:29N 51°25' E 003°44'0 0.0
2017-Oct-16 11:59N 51°25' E 003°44'0 0.0
2017-Oct-16 11:29N 51°25' E 003°44'0 0.0
2017-Oct-16 10:41N 51°25' E 003°44'0 0.0
2017-Oct-16 10:29N 51°25' E 003°44'0 0.0
2017-Oct-16 09:59N 51°25' E 003°44'0 0.0
2017-Oct-16 09:29N 51°25' E 003°44'0 0.0
2017-Oct-16 08:59N 51°25' E 003°44'0 0.0
2017-Oct-16 08:29N 51°25' E 003°44'0 0.0
2017-Oct-16 07:59N 51°25' E 003°44'0 0.0
2017-Oct-16 07:29N 51°25' E 003°44'0 0.0
2017-Oct-16 06:56N 51°25' E 003°44'0 0.0
2017-Oct-16 06:29N 51°25' E 003°44'0 0.0
2017-Oct-16 05:56N 51°25' E 003°44'0 0.0
2017-Oct-16 05:29N 51°25' E 003°44'0 0.0
2017-Oct-16 04:59N 51°25' E 003°44'0 0.0
2017-Oct-16 04:29N 51°25' E 003°44'0 0.0
2017-Oct-16 03:59N 51°25' E 003°44'0 0.0
2017-Oct-16 03:23N 51°25' E 003°44'0 0.0
2017-Oct-16 02:56N 51°25' E 003°44'0 0.0
2017-Oct-16 02:29N 51°25' E 003°44'0 0.0
2017-Oct-16 01:47N 51°25' E 003°44'0 0.0
2017-Oct-16 01:29N 51°25' E 003°44'0 0.0
2017-Oct-16 00:59N 51°25' E 003°44'0 0.0
2017-Oct-16 00:23N 51°25' E 003°44'0 0.0
2017-Oct-15 23:59N 51°25' E 003°44'0 0.0
2017-Oct-15 23:29N 51°25' E 003°44'0 0.0
2017-Oct-15 22:59N 51°25' E 003°44'0 0.0
2017-Oct-15 22:23N 51°25' E 003°44'0 0.0
2017-Oct-15 21:59N 51°25' E 003°44'0 0.0
2017-Oct-15 21:29N 51°25' E 003°44'0 0.0
2017-Oct-15 20:59N 51°25' E 003°44'0 0.0
2017-Oct-15 20:29N 51°25' E 003°44'0 0.0
2017-Oct-15 19:59N 51°25' E 003°44'0 0.0
2017-Oct-15 19:26N 51°25' E 003°44'0 0.0
2017-Oct-15 18:50N 51°25' E 003°44'0 0.0
2017-Oct-15 18:26N 51°25' E 003°44'0 0.0
2017-Oct-15 17:53N 51°25' E 003°44'0 0.0
2017-Oct-15 17:29N 51°25' E 003°44'0 0.0
2017-Oct-15 16:59N 51°25' E 003°44'0 0.0
2017-Oct-15 16:29N 51°25' E 003°44'0 0.0
2017-Oct-15 15:59N 51°25' E 003°44'0 0.0
2017-Oct-15 15:29N 51°25' E 003°44'0 0.0
2017-Oct-15 14:53N 51°25' E 003°44'0 0.0
2017-Oct-15 13:56N 51°25' E 003°44'0 0.0
2017-Oct-15 13:29N 51°25' E 003°44'0 0.0
2017-Oct-15 12:59N 51°25' E 003°44'0 0.0
2017-Oct-15 12:29N 51°25' E 003°44'0 0.0
2017-Oct-15 11:59N 51°25' E 003°44'0 0.0
2017-Oct-15 11:17N 51°25' E 003°44'0 0.0
2017-Oct-15 10:53N 51°25' E 003°44'0 0.0
2017-Oct-15 10:23N 51°25' E 003°44'0 0.0
2017-Oct-15 09:59N 51°25' E 003°44'0 0.0
2017-Oct-15 09:29N 51°25' E 003°44'0 0.0
2017-Oct-15 08:23N 51°25' E 003°44'0 0.0
2017-Oct-15 07:59N 51°25' E 003°44'0 0.0
2017-Oct-15 07:29N 51°25' E 003°44'0 0.0
2017-Oct-15 06:59N 51°25' E 003°44'0 0.0
2017-Oct-15 06:29N 51°25' E 003°44'0 0.0
2017-Oct-15 05:53N 51°25' E 003°44'0 0.0
2017-Oct-15 05:29N 51°25' E 003°44'0 0.0
2017-Oct-15 04:59N 51°25' E 003°44'0 0.0
2017-Oct-15 04:23N 51°25' E 003°44'0 0.0
2017-Oct-15 03:53N 51°25' E 003°44'0 0.0
2017-Oct-15 03:20N 51°25' E 003°44'0 0.0
2017-Oct-15 02:59N 51°25' E 003°44'0 0.0
2017-Oct-15 02:29N 51°25' E 003°44'0 0.0
2017-Oct-15 01:59N 51°25' E 003°44'0 0.0
2017-Oct-15 01:23N 51°25' E 003°44'0 0.0
2017-Oct-15 00:56N 51°25' E 003°44'0 0.0
2017-Oct-15 00:29N 51°25' E 003°44'0 0.0
2017-Oct-14 23:59N 51°25' E 003°44'0 0.0
2017-Oct-14 23:23N 51°25' E 003°44'0 0.0
2017-Oct-14 22:59N 51°25' E 003°44'0 0.0
2017-Oct-14 22:26N 51°25' E 003°44'0 0.0
2017-Oct-14 21:59N 51°25' E 003°44'0 0.0
2017-Oct-14 21:26N 51°25' E 003°44'0 0.0
2017-Oct-14 20:59N 51°25' E 003°44'0 0.0
2017-Oct-14 20:29N 51°25' E 003°44'0 0.0
2017-Oct-14 19:56N 51°25' E 003°44'0 0.0
2017-Oct-14 19:29N 51°25' E 003°44'0 0.0
2017-Oct-14 18:53N 51°25' E 003°44'0 0.0
2017-Oct-14 18:29N 51°25' E 003°44'0 0.0
2017-Oct-14 17:59N 51°25' E 003°44'0 0.0
2017-Oct-14 17:23N 51°25' E 003°44'0 0.0
2017-Oct-14 16:59N 51°25' E 003°44'0 0.0
2017-Oct-14 16:29N 51°25' E 003°44'0 0.0
2017-Oct-14 15:59N 51°25' E 003°44'0 0.0
2017-Oct-14 15:29N 51°25' E 003°44'0 0.0
2017-Oct-14 14:59N 51°25' E 003°44'0 0.0
2017-Oct-14 14:23N 51°25' E 003°44'0 0.0
2017-Oct-14 13:59N 51°25' E 003°44'0 0.0
2017-Oct-14 13:29N 51°25' E 003°44'0 0.0
2017-Oct-14 12:59N 51°25' E 003°44'0 0.0
2017-Oct-14 12:23N 51°25' E 003°44'0 0.0
2017-Oct-14 11:59N 51°25' E 003°44'0 0.0
2017-Oct-14 11:29N 51°25' E 003°44'0 0.0
2017-Oct-14 10:56N 51°25' E 003°44'0 0.0
2017-Oct-14 10:23N 51°25' E 003°44'0 0.0
2017-Oct-14 09:59N 51°25' E 003°44'0 0.0
2017-Oct-14 09:29N 51°25' E 003°44'0 0.0
2017-Oct-14 08:53N 51°25' E 003°44'0 0.0
2017-Oct-14 08:29N 51°25' E 003°44'0 0.0
2017-Oct-14 07:53N 51°25' E 003°44'0 0.0
2017-Oct-14 07:23N 51°25' E 003°44'0 0.0
2017-Oct-14 06:59N 51°25' E 003°44'0 0.0
2017-Oct-14 06:23N 51°25' E 003°44'0 0.0
2017-Oct-14 05:59N 51°25' E 003°44'0 0.0
2017-Oct-14 05:26N 51°25' E 003°44'0 0.0
2017-Oct-14 04:59N 51°25' E 003°44'0 0.0
2017-Oct-14 04:23N 51°25' E 003°44'0 0.0
2017-Oct-14 03:59N 51°25' E 003°44'0 0.0
2017-Oct-14 03:23N 51°25' E 003°44'0 0.0
2017-Oct-14 02:59N 51°25' E 003°44'0 0.0
2017-Oct-14 02:29N 51°25' E 003°44'0 0.0
2017-Oct-14 01:59N 51°25' E 003°44'0 0.0
2017-Oct-14 01:29N 51°25' E 003°44'0 0.0
2017-Oct-14 00:59N 51°25' E 003°44'0 0.0
2017-Oct-14 00:26N 51°25' E 003°44'0 0.0
2017-Oct-13 23:59N 51°25' E 003°44'0 0.0
2017-Oct-13 23:23N 51°25' E 003°44'0 0.0
2017-Oct-13 22:59N 51°25' E 003°44'0 0.0
2017-Oct-13 22:17N 51°25' E 003°44'0 0.0
2017-Oct-13 21:41N 51°25' E 003°44'0 0.0
2017-Oct-13 21:29N 51°25' E 003°44'0 0.0
2017-Oct-13 20:53N 51°25' E 003°44'0 0.0
2017-Oct-13 20:29N 51°25' E 003°44'0 0.1
2017-Oct-13 20:00N 51°25' E 003°44'2 3.8
2017-Oct-13 19:30N 51°26' E 003°41'4 8.4
2017-Oct-13 19:00N 51°25' E 003°34'5 9.6
2017-Oct-13 18:30N 51°25' E 003°27'612.6
2017-Oct-13 18:00N 51°24' E 003°17'612.6
2017-Oct-13 17:30N 51°24' E 003°07'611.9
2017-Oct-13 17:00N 51°25' E 002°57'611.2
2017-Oct-13 16:30N 51°25' E 002°48'4 8.9
2017-Oct-13 16:00N 51°22' E 002°42'3 5.3
2017-Oct-13 15:30N 51°23' E 002°38'1 2.0
2017-Oct-13 15:00N 51°24' E 002°37'0 0.1
2017-Oct-13 14:27N 51°24' E 002°37'0 0.1
2017-Oct-13 13:57N 51°24' E 002°37'0 0.3
2017-Oct-13 13:27N 51°24' E 002°37'0 0.3
2017-Oct-13 13:00N 51°24' E 002°37'0 0.1
2017-Oct-13 12:30N 51°24' E 002°37'0 0.0
2017-Oct-13 11:36N 51°24' E 002°37'0 0.1
2017-Oct-13 11:30N 51°24' E 002°37'0 0.0
2017-Oct-13 11:00N 51°24' E 002°37'0 0.0
2017-Oct-13 10:06N 51°24' E 002°37'0 0.0
2017-Oct-13 09:57N 51°24' E 002°37'0 0.0
2017-Oct-13 09:30N 51°24' E 002°37'0 0.0
2017-Oct-13 09:00N 51°24' E 002°37'0 0.0
2017-Oct-13 08:21N 51°24' E 002°37'0 0.0
2017-Oct-13 08:00N 51°24' E 002°37'0 0.0
2017-Oct-13 07:30N 51°24' E 002°37'0 0.0
2017-Oct-13 07:00N 51°24' E 002°37'0 0.0
2017-Oct-13 06:30N 51°24' E 002°37'0 0.0
2017-Oct-13 06:00N 51°24' E 002°37'0 0.0
2017-Oct-13 05:24N 51°24' E 002°37'0 0.0
2017-Oct-13 04:51N 51°24' E 002°37'0 0.1
2017-Oct-13 04:27N 51°24' E 002°37'0 0.1
2017-Oct-13 03:09N 51°24' E 002°37'0 0.0
2017-Oct-13 02:12N 51°24' E 002°37'0 0.0
2017-Oct-13 01:54N 51°24' E 002°37'0 0.0
2017-Oct-12 23:33N 51°24' E 002°37'0 0.3
2017-Oct-12 22:48N 51°24' E 002°37'0 0.1
2017-Oct-12 22:21N 51°24' E 002°37'0 0.0
2017-Oct-12 21:42N 51°24' E 002°37'0 0.0
2017-Oct-12 21:18N 51°24' E 002°37'0 0.0
2017-Oct-12 20:57N 51°24' E 002°37'0 0.0
2017-Oct-12 20:30N 51°24' E 002°37'0 0.0
2017-Oct-12 19:54N 51°24' E 002°37'0 0.0
2017-Oct-12 19:30N 51°24' E 002°37'0 0.0
2017-Oct-12 18:57N 51°24' E 002°37'0 0.0
2017-Oct-12 18:24N 51°24' E 002°37'0 0.0
2017-Oct-12 18:00N 51°24' E 002°37'0 0.0
2017-Oct-12 17:30N 51°24' E 002°37'0 0.0
2017-Oct-12 17:00N 51°24' E 002°37'0 0.0
2017-Oct-12 16:15N 51°24' E 002°37'0 0.0
2017-Oct-12 16:00N 51°24' E 002°37'0 0.0
2017-Oct-12 09:06N 51°24' E 002°37'0 0.0
2017-Oct-12 09:00N 51°24' E 002°37'0 0.1
2017-Oct-12 08:27N 51°24' E 002°37'0 0.0
2017-Oct-12 07:57N 51°24' E 002°37'0 0.0
2017-Oct-12 07:30N 51°24' E 002°37'0 0.0
2017-Oct-12 07:00N 51°24' E 002°37'0 0.0
2017-Oct-12 06:27N 51°24' E 002°37'0 0.0
2017-Oct-12 05:51N 51°24' E 002°37'0 0.0
2017-Oct-12 01:00N 51°24' E 002°37'0 0.1
2017-Oct-12 00:30N 51°24' E 002°37'0 0.1
2017-Oct-11 22:48N 51°24' E 002°37'0 0.2
2017-Oct-11 22:18N 51°24' E 002°37'0 0.0
2017-Oct-11 21:54N 51°24' E 002°37'0 0.0
2017-Oct-11 21:30N 51°24' E 002°37'0 0.0
2017-Oct-11 21:00N 51°24' E 002°37'0 0.0
2017-Oct-11 20:30N 51°24' E 002°37'0 0.0
2017-Oct-11 20:00N 51°24' E 002°37'0 0.0
2017-Oct-11 19:27N 51°24' E 002°37'0 0.0
2017-Oct-11 18:57N 51°24' E 002°37'0 0.0
2017-Oct-11 18:27N 51°24' E 002°37'0 0.0
2017-Oct-11 17:51N 51°24' E 002°37'0 0.0
2017-Oct-11 17:30N 51°24' E 002°37'0 0.1
2017-Oct-11 16:57N 51°24' E 002°37'37 2.2
2017-Oct-11 00:00N 51°26' E 003°37'4 8.9
2017-Oct-10 23:30N 51°23' E 003°43'612.1
2017-Oct-10 23:00N 51°21' E 003°52'612.4
2017-Oct-10 22:30N 51°26' E 003°58'510.4
2017-Oct-10 22:00N 51°22' E 004°04'510.6
2017-Oct-10 21:31N 51°24' E 004°13'4 7.9
2017-Oct-10 21:00N 51°21' E 004°17'0 0.3
2017-Oct-10 20:30N 51°21' E 004°17'0 0.2
2017-Oct-10 20:01N 51°21' E 004°17'1 2.6
2017-Oct-10 19:30N 51°20' E 004°18'3 5.8
2017-Oct-10 19:00N 51°17' E 004°20'1 1.7
2017-Oct-10 18:27N 51°16' E 004°21'0 0.0
2017-Oct-10 18:00N 51°16' E 004°21'0 0.0
2017-Oct-10 17:27N 51°16' E 004°21'0 0.0
2017-Oct-10 17:00N 51°16' E 004°21'0 0.0
2017-Oct-10 16:30N 51°16' E 004°21'0 0.0
2017-Oct-10 15:57N 51°16' E 004°21'  
Track history (hours):
 
Tides and Currents Weather Stations Pressure Air Temp Water Temp Dewpoint Dewpoint Depression Visibility Wind Speed Wind Dir Waves Ship Positions

Minerva Tychi

Last reported at 2017-Oct-20 15:54 UTC. Time now 2017-Oct-20 16:30 UTC.
Position N 51°25' E 002°41'.

Length 184 m; draft 11.1 m.

Type: Tanker. MMSI: 241372000.

Date/timePositionNaut miles runAvg speedWind from/ knotsBaromVisibWave heightAir tempDewpointWater temp
2017-Oct-20 15:54N 51°25' E 002°41'0 0.0
2017-Oct-20 15:30N 51°25' E 002°41'0 0.0
2017-Oct-20 15:00N 51°25' E 002°41'0 0.0
2017-Oct-20 14:30N 51°25' E 002°41'0 0.0
2017-Oct-20 13:30N 51°25' E 002°41'0 0.0
2017-Oct-20 13:00N 51°25' E 002°41'0 0.0
2017-Oct-20 12:30N 51°25' E 002°41'0 0.0
2017-Oct-20 11:57N 51°25' E 002°41'0 0.0
2017-Oct-20 07:27N 51°25' E 002°40'0 0.1
2017-Oct-20 05:57N 51°25' E 002°41'0 0.0
2017-Oct-20 05:27N 51°25' E 002°41'0 0.0
2017-Oct-20 04:57N 51°25' E 002°41'0 0.0
2017-Oct-20 04:18N 51°25' E 002°41'0 0.0
2017-Oct-20 03:51N 51°25' E 002°41'0 0.0
2017-Oct-20 01:33N 51°25' E 002°41'0 0.0
2017-Oct-20 01:18N 51°25' E 002°41'0 0.1
2017-Oct-20 00:54N 51°25' E 002°41'0 0.0
2017-Oct-20 00:15N 51°25' E 002°41'0 0.1
2017-Oct-19 20:36N 51°25' E 002°40'0 0.0
2017-Oct-19 20:24N 51°25' E 002°40'0 0.0
2017-Oct-19 19:51N 51°25' E 002°40'0 0.0
2017-Oct-19 19:30N 51°25' E 002°40'0 0.1
2017-Oct-19 18:03N 51°25' E 002°40'0 0.2
2017-Oct-19 17:48N 51°25' E 002°40'0 0.3
2017-Oct-19 17:27N 51°25' E 002°40'1 2.0
2017-Oct-19 16:57N 51°24' E 002°42'3 7.1
2017-Oct-19 16:31N 51°24' E 002°47'510.6
2017-Oct-19 16:01N 51°25' E 002°55'611.6
2017-Oct-19 15:30N 51°24' E 003°04'611.4
2017-Oct-19 15:00N 51°25' E 003°14'612.0
2017-Oct-19 14:30N 51°25' E 003°23'612.1
2017-Oct-19 14:01N 51°26' E 003°33'4 8.9
2017-Oct-19 13:30N 51°26' E 003°40'5 9.3
2017-Oct-19 13:00N 51°23' E 003°44'4 8.4
2017-Oct-19 12:31N 51°21' E 003°50'4 7.2
2017-Oct-19 12:00N 51°22' E 003°55'4 7.9
2017-Oct-19 11:30N 51°26' E 003°58'3 6.0
2017-Oct-19 11:00N 51°24' E 004°02'4 8.2
2017-Oct-19 10:30N 51°22' E 004°08'3 6.5
2017-Oct-19 10:00N 51°22' E 004°13'3 5.2
2017-Oct-19 09:30N 51°21' E 004°17'0 0.0
2017-Oct-19 08:58N 51°21' E 004°17'0 0.0
2017-Oct-19 08:22N 51°21' E 004°17'0 0.9
2017-Oct-19 08:00N 51°21' E 004°18'3 5.9
2017-Oct-19 07:30N 51°18' E 004°20'2 3.6
2017-Oct-19 07:00N 51°16' E 004°21'0 0.5
2017-Oct-19 06:29N 51°16' E 004°21'0 0.0
2017-Oct-19 05:59N 51°16' E 004°21'0 0.0
2017-Oct-19 05:26N 51°16' E 004°21'0 0.0
2017-Oct-19 04:50N 51°16' E 004°21'0 0.0
2017-Oct-19 04:26N 51°16' E 004°21'0 0.0
2017-Oct-19 03:59N 51°16' E 004°21'0 0.0
2017-Oct-19 03:29N 51°16' E 004°21'0 0.0
2017-Oct-19 02:56N 51°16' E 004°21'0 0.0
2017-Oct-19 02:29N 51°16' E 004°21'0 0.0
2017-Oct-19 01:56N 51°16' E 004°21'0 0.0
2017-Oct-19 01:20N 51°16' E 004°21'0 0.0
2017-Oct-19 00:59N 51°16' E 004°21'0 0.0
2017-Oct-19 00:26N 51°16' E 004°21'0 0.0
2017-Oct-18 23:56N 51°16' E 004°21'0 0.0
2017-Oct-18 23:29N 51°16' E 004°21'0 0.0
2017-Oct-18 22:59N 51°16' E 004°21'0 0.0
2017-Oct-18 22:29N 51°16' E 004°21'0 0.0
2017-Oct-18 21:59N 51°16' E 004°21'0 0.0
2017-Oct-18 21:26N 51°16' E 004°21'0 0.0
2017-Oct-18 20:59N 51°16' E 004°21'0 0.0
2017-Oct-18 20:26N 51°16' E 004°21'0 0.0
2017-Oct-18 19:59N 51°16' E 004°21'0 0.0
2017-Oct-18 19:26N 51°16' E 004°21'0 0.0
2017-Oct-18 18:53N 51°16' E 004°21'0 0.0
2017-Oct-18 18:23N 51°16' E 004°21'0 0.0
2017-Oct-18 17:59N 51°16' E 004°21'0 0.0
2017-Oct-18 17:29N 51°16' E 004°21'0 0.0
2017-Oct-18 16:59N 51°16' E 004°21'0 0.0
2017-Oct-18 16:29N 51°16' E 004°21'0 0.0
2017-Oct-18 15:56N 51°16' E 004°21'0 0.0
2017-Oct-18 15:29N 51°16' E 004°21'0 0.0
2017-Oct-18 14:59N 51°16' E 004°21'0 0.0
2017-Oct-18 13:59N 51°16' E 004°21'0 0.0
2017-Oct-18 13:23N 51°16' E 004°21'0 0.0
2017-Oct-18 12:59N 51°16' E 004°21'0 0.0
2017-Oct-18 12:26N 51°16' E 004°21'0 0.0
2017-Oct-18 11:59N 51°16' E 004°21'0 0.0
2017-Oct-18 11:29N 51°16' E 004°21'0 0.0
2017-Oct-18 10:56N 51°16' E 004°21'0 0.0
2017-Oct-18 10:29N 51°16' E 004°21'0 0.0
2017-Oct-18 09:59N 51°16' E 004°21'0 0.0
2017-Oct-18 09:29N 51°16' E 004°21'0 0.0
2017-Oct-18 08:53N 51°16' E 004°21'0 0.0
2017-Oct-18 08:29N 51°16' E 004°21'0 0.0
2017-Oct-18 07:59N 51°16' E 004°21'0 0.0
2017-Oct-18 07:26N 51°16' E 004°21'0 0.0
2017-Oct-18 06:56N 51°16' E 004°21'0 0.0
2017-Oct-18 06:29N 51°16' E 004°21'0 0.0
2017-Oct-18 05:50N 51°16' E 004°21'0 0.0
2017-Oct-18 05:26N 51°16' E 004°21'0 0.0
2017-Oct-18 04:59N 51°16' E 004°21'0 0.0
2017-Oct-18 04:26N 51°16' E 004°21'0 0.0
2017-Oct-18 03:56N 51°16' E 004°21'0 0.0
2017-Oct-18 03:23N 51°16' E 004°21'0 0.0
2017-Oct-18 02:59N 51°16' E 004°21'0 0.0
2017-Oct-18 02:29N 51°16' E 004°21'0 0.0
2017-Oct-18 01:59N 51°16' E 004°21'0 0.0
2017-Oct-18 01:29N 51°16' E 004°21'0 0.0
2017-Oct-18 00:59N 51°16' E 004°21'0 0.0
2017-Oct-18 00:29N 51°16' E 004°21'0 0.0
2017-Oct-17 23:50N 51°16' E 004°21'0 0.0
2017-Oct-17 23:26N 51°16' E 004°21'0 0.0
2017-Oct-17 22:56N 51°16' E 004°21'0 0.0
2017-Oct-17 22:26N 51°16' E 004°21'0 0.0
2017-Oct-17 21:59N 51°16' E 004°21'0 0.0
2017-Oct-17 21:29N 51°16' E 004°21'0 0.0
2017-Oct-17 20:59N 51°16' E 004°21'0 0.0
2017-Oct-17 20:17N 51°16' E 004°21'0 0.0
2017-Oct-17 19:56N 51°16' E 004°21'0 0.0
2017-Oct-17 19:29N 51°16' E 004°21'0 0.0
2017-Oct-17 18:59N 51°16' E 004°21'0 0.0
2017-Oct-17 18:29N 51°16' E 004°21'0 0.0
2017-Oct-17 17:59N 51°16' E 004°21'0 0.0
2017-Oct-17 17:26N 51°16' E 004°21'0 0.0
2017-Oct-17 16:59N 51°16' E 004°21'0 0.0
2017-Oct-17 16:29N 51°16' E 004°21'0 0.0
2017-Oct-17 15:59N 51°16' E 004°21'0 0.0
2017-Oct-17 15:20N 51°16' E 004°21'0 0.0
2017-Oct-17 14:59N 51°16' E 004°21'0 0.0
2017-Oct-17 14:26N 51°16' E 004°21'0 0.0
2017-Oct-17 13:56N 51°16' E 004°21'0 0.0
2017-Oct-17 13:29N 51°16' E 004°21'0 0.0
2017-Oct-17 12:56N 51°16' E 004°21'0 0.0
2017-Oct-17 12:26N 51°16' E 004°21'0 0.0
2017-Oct-17 11:59N 51°16' E 004°21'0 0.0
2017-Oct-17 11:29N 51°16' E 004°21'0 0.0
2017-Oct-17 10:59N 51°16' E 004°21'0 0.0
2017-Oct-17 10:29N 51°16' E 004°21'0 0.1
2017-Oct-17 10:00N 51°16' E 004°21'2 4.1
2017-Oct-17 09:30N 51°18' E 004°20'3 5.9
2017-Oct-17 09:01N 51°21' E 004°17'0 0.0
2017-Oct-17 08:30N 51°21' E 004°17'0 0.0
2017-Oct-17 08:00N 51°21' E 004°17'0 0.0
2017-Oct-17 07:30N 51°21' E 004°17'0 0.0
2017-Oct-17 07:00N 51°21' E 004°17'2 3.1
2017-Oct-17 06:30N 51°21' E 004°15'4 7.1
2017-Oct-17 06:00N 51°24' E 004°11'510.2
2017-Oct-17 05:30N 51°22' E 004°03'4 8.9
2017-Oct-17 05:00N 51°26' E 003°59'510.7
2017-Oct-17 04:30N 51°21' E 003°54'5 9.8
2017-Oct-17 04:00N 51°22' E 003°46'4 7.3
2017-Oct-17 03:30N 51°25' E 003°43'0 0.6
2017-Oct-17 02:56N 51°25' E 003°44'0 0.0
2017-Oct-17 02:23N 51°25' E 003°44'0 0.0
2017-Oct-17 01:59N 51°25' E 003°44'0 0.0
2017-Oct-17 01:29N 51°25' E 003°44'0 0.0
2017-Oct-17 00:59N 51°25' E 003°44'0 0.0
2017-Oct-17 00:29N 51°25' E 003°44'0 0.0
2017-Oct-16 23:59N 51°25' E 003°44'0 0.0
2017-Oct-16 23:08N 51°25' E 003°44'0 0.0
2017-Oct-16 22:53N 51°25' E 003°44'0 0.0
2017-Oct-16 22:29N 51°25' E 003°44'0 0.0
2017-Oct-16 21:59N 51°25' E 003°44'0 0.0
2017-Oct-16 21:29N 51°25' E 003°44'0 0.0
2017-Oct-16 20:59N 51°25' E 003°44'0 0.0
2017-Oct-16 20:29N 51°25' E 003°44'0 0.0
2017-Oct-16 19:59N 51°25' E 003°44'0 0.0
2017-Oct-16 19:29N 51°25' E 003°44'0 0.0
2017-Oct-16 18:59N 51°25' E 003°44'0 0.0
2017-Oct-16 18:29N 51°25' E 003°44'0 0.0
2017-Oct-16 17:59N 51°25' E 003°44'0 0.0
2017-Oct-16 17:29N 51°25' E 003°44'0 0.0
2017-Oct-16 16:59N 51°25' E 003°44'0 0.0
2017-Oct-16 16:23N 51°25' E 003°44'0 0.0
2017-Oct-16 15:59N 51°25' E 003°44'0 0.0
2017-Oct-16 15:29N 51°25' E 003°44'0 0.0
2017-Oct-16 14:59N 51°25' E 003°44'0 0.0
2017-Oct-16 13:59N 51°25' E 003°44'0 0.0
2017-Oct-16 13:17N 51°25' E 003°44'0 0.0
2017-Oct-16 12:59N 51°25' E 003°44'0 0.0
2017-Oct-16 12:29N 51°25' E 003°44'0 0.0
2017-Oct-16 11:59N 51°25' E 003°44'0 0.0
2017-Oct-16 11:29N 51°25' E 003°44'0 0.0
2017-Oct-16 10:41N 51°25' E 003°44'0 0.0
2017-Oct-16 10:29N 51°25' E 003°44'0 0.0
2017-Oct-16 09:59N 51°25' E 003°44'0 0.0
2017-Oct-16 09:29N 51°25' E 003°44'0 0.0
2017-Oct-16 08:59N 51°25' E 003°44'0 0.0
2017-Oct-16 08:29N 51°25' E 003°44'0 0.0
2017-Oct-16 07:59N 51°25' E 003°44'0 0.0
2017-Oct-16 07:29N 51°25' E 003°44'0 0.0
2017-Oct-16 06:56N 51°25' E 003°44'0 0.0
2017-Oct-16 06:29N 51°25' E 003°44'0 0.0
2017-Oct-16 05:56N 51°25' E 003°44'0 0.0
2017-Oct-16 05:29N 51°25' E 003°44'0 0.0
2017-Oct-16 04:59N 51°25' E 003°44'0 0.0
2017-Oct-16 04:29N 51°25' E 003°44'0 0.0
2017-Oct-16 03:59N 51°25' E 003°44'0 0.0
2017-Oct-16 03:23N 51°25' E 003°44'0 0.0
2017-Oct-16 02:56N 51°25' E 003°44'0 0.0
2017-Oct-16 02:29N 51°25' E 003°44'0 0.0
2017-Oct-16 01:47N 51°25' E 003°44'0 0.0
2017-Oct-16 01:29N 51°25' E 003°44'0 0.0
2017-Oct-16 00:59N 51°25' E 003°44'0 0.0
2017-Oct-16 00:23N 51°25' E 003°44'0 0.0
2017-Oct-15 23:59N 51°25' E 003°44'0 0.0
2017-Oct-15 23:29N 51°25' E 003°44'0 0.0
2017-Oct-15 22:59N 51°25' E 003°44'0 0.0
2017-Oct-15 22:23N 51°25' E 003°44'0 0.0
2017-Oct-15 21:59N 51°25' E 003°44'0 0.0
2017-Oct-15 21:29N 51°25' E 003°44'0 0.0
2017-Oct-15 20:59N 51°25' E 003°44'0 0.0
2017-Oct-15 20:29N 51°25' E 003°44'0 0.0
2017-Oct-15 19:59N 51°25' E 003°44'0 0.0
2017-Oct-15 19:26N 51°25' E 003°44'0 0.0
2017-Oct-15 18:50N 51°25' E 003°44'0 0.0
2017-Oct-15 18:26N 51°25' E 003°44'0 0.0
2017-Oct-15 17:53N 51°25' E 003°44'0 0.0
2017-Oct-15 17:29N 51°25' E 003°44'0 0.0
2017-Oct-15 16:59N 51°25' E 003°44'0 0.0
2017-Oct-15 16:29N 51°25' E 003°44'0 0.0
2017-Oct-15 15:59N 51°25' E 003°44'0 0.0
2017-Oct-15 15:29N 51°25' E 003°44'0 0.0
2017-Oct-15 14:53N 51°25' E 003°44'0 0.0
2017-Oct-15 13:56N 51°25' E 003°44'0 0.0
2017-Oct-15 13:29N 51°25' E 003°44'0 0.0
2017-Oct-15 12:59N 51°25' E 003°44'0 0.0
2017-Oct-15 12:29N 51°25' E 003°44'0 0.0
2017-Oct-15 11:59N 51°25' E 003°44'0 0.0
2017-Oct-15 11:17N 51°25' E 003°44'0 0.0
2017-Oct-15 10:53N 51°25' E 003°44'0 0.0
2017-Oct-15 10:23N 51°25' E 003°44'0 0.0
2017-Oct-15 09:59N 51°25' E 003°44'0 0.0
2017-Oct-15 09:29N 51°25' E 003°44'0 0.0
2017-Oct-15 08:23N 51°25' E 003°44'0 0.0
2017-Oct-15 07:59N 51°25' E 003°44'0 0.0
2017-Oct-15 07:29N 51°25' E 003°44'0 0.0
2017-Oct-15 06:59N 51°25' E 003°44'0 0.0
2017-Oct-15 06:29N 51°25' E 003°44'0 0.0
2017-Oct-15 05:53N 51°25' E 003°44'0 0.0
2017-Oct-15 05:29N 51°25' E 003°44'0 0.0
2017-Oct-15 04:59N 51°25' E 003°44'0 0.0
2017-Oct-15 04:23N 51°25' E 003°44'0 0.0
2017-Oct-15 03:53N 51°25' E 003°44'0 0.0
2017-Oct-15 03:20N 51°25' E 003°44'0 0.0
2017-Oct-15 02:59N 51°25' E 003°44'0 0.0
2017-Oct-15 02:29N 51°25' E 003°44'0 0.0
2017-Oct-15 01:59N 51°25' E 003°44'0 0.0
2017-Oct-15 01:23N 51°25' E 003°44'0 0.0
2017-Oct-15 00:56N 51°25' E 003°44'0 0.0
2017-Oct-15 00:29N 51°25' E 003°44'0 0.0
2017-Oct-14 23:59N 51°25' E 003°44'0 0.0
2017-Oct-14 23:23N 51°25' E 003°44'0 0.0
2017-Oct-14 22:59N 51°25' E 003°44'0 0.0
2017-Oct-14 22:26N 51°25' E 003°44'0 0.0
2017-Oct-14 21:59N 51°25' E 003°44'0 0.0
2017-Oct-14 21:26N 51°25' E 003°44'0 0.0
2017-Oct-14 20:59N 51°25' E 003°44'0 0.0
2017-Oct-14 20:29N 51°25' E 003°44'0 0.0
2017-Oct-14 19:56N 51°25' E 003°44'0 0.0
2017-Oct-14 19:29N 51°25' E 003°44'0 0.0
2017-Oct-14 18:53N 51°25' E 003°44'0 0.0
2017-Oct-14 18:29N 51°25' E 003°44'0 0.0
2017-Oct-14 17:59N 51°25' E 003°44'0 0.0
2017-Oct-14 17:23N 51°25' E 003°44'0 0.0
2017-Oct-14 16:59N 51°25' E 003°44'0 0.0
2017-Oct-14 16:29N 51°25' E 003°44'0 0.0
2017-Oct-14 15:59N 51°25' E 003°44'0 0.0
2017-Oct-14 15:29N 51°25' E 003°44'0 0.0
2017-Oct-14 14:59N 51°25' E 003°44'0 0.0
2017-Oct-14 14:23N 51°25' E 003°44'0 0.0
2017-Oct-14 13:59N 51°25' E 003°44'0 0.0
2017-Oct-14 13:29N 51°25' E 003°44'0 0.0
2017-Oct-14 12:59N 51°25' E 003°44'0 0.0
2017-Oct-14 12:23N 51°25' E 003°44'0 0.0
2017-Oct-14 11:59N 51°25' E 003°44'0 0.0
2017-Oct-14 11:29N 51°25' E 003°44'0 0.0
2017-Oct-14 10:56N 51°25' E 003°44'0 0.0
2017-Oct-14 10:23N 51°25' E 003°44'0 0.0
2017-Oct-14 09:59N 51°25' E 003°44'0 0.0
2017-Oct-14 09:29N 51°25' E 003°44'0 0.0
2017-Oct-14 08:53N 51°25' E 003°44'0 0.0
2017-Oct-14 08:29N 51°25' E 003°44'0 0.0
2017-Oct-14 07:53N 51°25' E 003°44'0 0.0
2017-Oct-14 07:23N 51°25' E 003°44'0 0.0
2017-Oct-14 06:59N 51°25' E 003°44'0 0.0
2017-Oct-14 06:23N 51°25' E 003°44'0 0.0
2017-Oct-14 05:59N 51°25' E 003°44'0 0.0
2017-Oct-14 05:26N 51°25' E 003°44'0 0.0
2017-Oct-14 04:59N 51°25' E 003°44'0 0.0
2017-Oct-14 04:23N 51°25' E 003°44'0 0.0
2017-Oct-14 03:59N 51°25' E 003°44'0 0.0
2017-Oct-14 03:23N 51°25' E 003°44'0 0.0
2017-Oct-14 02:59N 51°25' E 003°44'0 0.0
2017-Oct-14 02:29N 51°25' E 003°44'0 0.0
2017-Oct-14 01:59N 51°25' E 003°44'0 0.0
2017-Oct-14 01:29N 51°25' E 003°44'0 0.0
2017-Oct-14 00:59N 51°25' E 003°44'0 0.0
2017-Oct-14 00:26N 51°25' E 003°44'0 0.0
2017-Oct-13 23:59N 51°25' E 003°44'0 0.0
2017-Oct-13 23:23N 51°25' E 003°44'0 0.0
2017-Oct-13 22:59N 51°25' E 003°44'0 0.0
2017-Oct-13 22:17N 51°25' E 003°44'0 0.0
2017-Oct-13 21:41N 51°25' E 003°44'0 0.0
2017-Oct-13 21:29N 51°25' E 003°44'0 0.0
2017-Oct-13 20:53N 51°25' E 003°44'0 0.0
2017-Oct-13 20:29N 51°25' E 003°44'0 0.1
2017-Oct-13 20:00N 51°25' E 003°44'2 3.8
2017-Oct-13 19:30N 51°26' E 003°41'4 8.4
2017-Oct-13 19:00N 51°25' E 003°34'5 9.6
2017-Oct-13 18:30N 51°25' E 003°27'612.6
2017-Oct-13 18:00N 51°24' E 003°17'612.6
2017-Oct-13 17:30N 51°24' E 003°07'611.9
2017-Oct-13 17:00N 51°25' E 002°57'611.2
2017-Oct-13 16:30N 51°25' E 002°48'4 8.9
2017-Oct-13 16:00N 51°22' E 002°42'3 5.3
2017-Oct-13 15:30N 51°23' E 002°38'1 2.0
2017-Oct-13 15:00N 51°24' E 002°37'0 0.1
2017-Oct-13 14:27N 51°24' E 002°37'0 0.1
2017-Oct-13 13:57N 51°24' E 002°37'0 0.3
2017-Oct-13 13:27N 51°24' E 002°37'0 0.3
2017-Oct-13 13:00N 51°24' E 002°37'0 0.1
2017-Oct-13 12:30N 51°24' E 002°37'0 0.0
2017-Oct-13 11:36N 51°24' E 002°37'0 0.1
2017-Oct-13 11:30N 51°24' E 002°37'0 0.0
2017-Oct-13 11:00N 51°24' E 002°37'0 0.0
2017-Oct-13 10:06N 51°24' E 002°37'0 0.0
2017-Oct-13 09:57N 51°24' E 002°37'0 0.0
2017-Oct-13 09:30N 51°24' E 002°37'0 0.0
2017-Oct-13 09:00N 51°24' E 002°37'0 0.0
2017-Oct-13 08:21N 51°24' E 002°37'0 0.0
2017-Oct-13 08:00N 51°24' E 002°37'0 0.0
2017-Oct-13 07:30N 51°24' E 002°37'0 0.0
2017-Oct-13 07:00N 51°24' E 002°37'0 0.0
2017-Oct-13 06:30N 51°24' E 002°37'0 0.0
2017-Oct-13 06:00N 51°24' E 002°37'0 0.0
2017-Oct-13 05:24N 51°24' E 002°37'0 0.0
2017-Oct-13 04:51N 51°24' E 002°37'0 0.1
2017-Oct-13 04:27N 51°24' E 002°37'0 0.1
2017-Oct-13 03:09N 51°24' E 002°37'0 0.0
2017-Oct-13 02:12N 51°24' E 002°37'0 0.0
2017-Oct-13 01:54N 51°24' E 002°37'0 0.0
2017-Oct-12 23:33N 51°24' E 002°37'0 0.3
2017-Oct-12 22:48N 51°24' E 002°37'0 0.1
2017-Oct-12 22:21N 51°24' E 002°37'0 0.0
2017-Oct-12 21:42N 51°24' E 002°37'0 0.0
2017-Oct-12 21:18N 51°24' E 002°37'0 0.0
2017-Oct-12 20:57N 51°24' E 002°37'0 0.0
2017-Oct-12 20:30N 51°24' E 002°37'0 0.0
2017-Oct-12 19:54N 51°24' E 002°37'0 0.0
2017-Oct-12 19:30N 51°24' E 002°37'0 0.0
2017-Oct-12 18:57N 51°24' E 002°37'0 0.0
2017-Oct-12 18:24N 51°24' E 002°37'0 0.0
2017-Oct-12 18:00N 51°24' E 002°37'0 0.0
2017-Oct-12 17:30N 51°24' E 002°37'0 0.0
2017-Oct-12 17:00N 51°24' E 002°37'0 0.0
2017-Oct-12 16:15N 51°24' E 002°37'0 0.0
2017-Oct-12 16:00N 51°24' E 002°37'0 0.0
2017-Oct-12 09:06N 51°24' E 002°37'0 0.0
2017-Oct-12 09:00N 51°24' E 002°37'0 0.1
2017-Oct-12 08:27N 51°24' E 002°37'0 0.0
2017-Oct-12 07:57N 51°24' E 002°37'0 0.0
2017-Oct-12 07:30N 51°24' E 002°37'0 0.0
2017-Oct-12 07:00N 51°24' E 002°37'0 0.0
2017-Oct-12 06:27N 51°24' E 002°37'0 0.0
2017-Oct-12 05:51N 51°24' E 002°37'0 0.0
2017-Oct-12 01:00N 51°24' E 002°37'0 0.1
2017-Oct-12 00:30N 51°24' E 002°37'0 0.1
2017-Oct-11 22:48N 51°24' E 002°37'0 0.2
2017-Oct-11 22:18N 51°24' E 002°37'0 0.0
2017-Oct-11 21:54N 51°24' E 002°37'0 0.0
2017-Oct-11 21:30N 51°24' E 002°37'0 0.0
2017-Oct-11 21:00N 51°24' E 002°37'0 0.0
2017-Oct-11 20:30N 51°24' E 002°37'0 0.0
2017-Oct-11 20:00N 51°24' E 002°37'0 0.0
2017-Oct-11 19:27N 51°24' E 002°37'0 0.0
2017-Oct-11 18:57N 51°24' E 002°37'0 0.0
2017-Oct-11 18:27N 51°24' E 002°37'0 0.0
2017-Oct-11 17:51N 51°24' E 002°37'0 0.0
2017-Oct-11 17:30N 51°24' E 002°37'0 0.1
2017-Oct-11 16:57N 51°24' E 002°37'37 2.2
2017-Oct-11 00:00N 51°26' E 003°37'4 8.9
2017-Oct-10 23:30N 51°23' E 003°43'612.1
2017-Oct-10 23:00N 51°21' E 003°52'612.4
2017-Oct-10 22:30N 51°26' E 003°58'510.4
2017-Oct-10 22:00N 51°22' E 004°04'510.6
2017-Oct-10 21:31N 51°24' E 004°13'4 7.9
2017-Oct-10 21:00N 51°21' E 004°17'0 0.3
2017-Oct-10 20:30N 51°21' E 004°17'0 0.2
2017-Oct-10 20:01N 51°21' E 004°17'1 2.6
2017-Oct-10 19:30N 51°20' E 004°18'3 5.8
2017-Oct-10 19:00N 51°17' E 004°20'1 1.7
2017-Oct-10 18:27N 51°16' E 004°21'0 0.0
2017-Oct-10 18:00N 51°16' E 004°21'0 0.0
2017-Oct-10 17:27N 51°16' E 004°21'0 0.0
2017-Oct-10 17:00N 51°16' E 004°21'0 0.0
2017-Oct-10 16:30N 51°16' E 004°21'0 0.0
2017-Oct-10 15:57N 51°16' E 004°21'  

Dump ship's entire track history